Analomink, Pennsylvania
Current Conditions -  °F | °C
As of 4:39 AM on Saturday 01 Nov 2014 (Local Time) from KMPO Reporting Station
Overcast Overcast  
Wind Chill: 34°   Ceiling: 1500
Heat Index: 41°   Visibility: 10mi
Dew Point: 35°   Wind: 12mph
Humidity: 79%   Direction: 60°ENE
Pressure: 29.81"   Gusts: NA
Location:  41.05°N, 75.22°W
Report Text: KMPO 010839Z AUTO 06010KT 10SM OVC015 05/02 A2981 RMK AO2 T00500017
Loading
Personal Weather Stations






























Interactive Weather Map
Tropical Storm Tracking
New forecast layout! Learn more

10-Day Weather Forecast

Advertisements
Track Severe Weather on mobile